sensor_id;sensor_type;location;lat;lon;timestamp;pressure;altitude;pressure_sealevel;temperature;humidity
76337;BME280;65157;50.082;18.178;2023-05-10T00:00:35;99395.65;;;8.42;61.31
76337;BME280;65157;50.082;18.178;2023-05-10T00:03:10;99395.65;;;8.42;61.55
76337;BME280;65157;50.082;18.178;2023-05-10T00:05:36;99394.79;;;8.42;61.47
76337;BME280;65157;50.082;18.178;2023-05-10T00:08:03;99393.39;;;8.41;61.42
76337;BME280;65157;50.082;18.178;2023-05-10T00:10:30;99393.02;;;8.42;61.55
76337;BME280;65157;50.082;18.178;2023-05-10T00:12:57;99389.56;;;8.40;61.43
76337;BME280;65157;50.082;18.178;2023-05-10T00:15:24;99388.50;;;8.40;61.55
76337;BME280;65157;50.082;18.178;2023-05-10T00:17:51;99382.71;;;8.39;61.52
76337;BME280;65157;50.082;18.178;2023-05-10T00:20:18;99383.66;;;8.37;61.51
76337;BME280;65157;50.082;18.178;2023-05-10T00:22:45;99383.77;;;8.35;61.58
76337;BME280;65157;50.082;18.178;2023-05-10T00:25:11;99380.20;;;8.30;61.57
76337;BME280;65157;50.082;18.178;2023-05-10T00:27:38;99377.51;;;8.26;61.62
76337;BME280;65157;50.082;18.178;2023-05-10T00:30:07;99380.29;;;8.21;61.77
76337;BME280;65157;50.082;18.178;2023-05-10T00:32:35;99380.27;;;8.16;61.79
76337;BME280;65157;50.082;18.178;2023-05-10T00:35:01;99379.20;;;8.10;61.90
76337;BME280;65157;50.082;18.178;2023-05-10T00:37:28;99374.96;;;8.05;61.99
76337;BME280;65157;50.082;18.178;2023-05-10T00:39:55;99377.14;;;8.03;62.13
76337;BME280;65157;50.082;18.178;2023-05-10T00:42:21;99366.05;;;7.98;62.11
76337;BME280;65157;50.082;18.178;2023-05-10T00:44:48;99371.02;;;8.02;62.17
76337;BME280;65157;50.082;18.178;2023-05-10T00:47:16;99370.36;;;8.01;62.33
76337;BME280;65157;50.082;18.178;2023-05-10T00:49:43;99371.06;;;8.00;62.38
76337;BME280;65157;50.082;18.178;2023-05-10T00:52:10;99368.12;;;7.99;62.30
76337;BME280;65157;50.082;18.178;2023-05-10T00:54:37;99360.89;;;8.00;62.25
76337;BME280;65157;50.082;18.178;2023-05-10T00:57:04;99363.00;;;8.00;62.20
76337;BME280;65157;50.082;18.178;2023-05-10T00:59:30;99360.23;;;7.98;62.40
76337;BME280;65157;50.082;18.178;2023-05-10T01:01:57;99361.42;;;7.93;62.22
76337;BME280;65157;50.082;18.178;2023-05-10T01:04:24;99362.07;;;7.89;62.22
76337;BME280;65157;50.082;18.178;2023-05-10T01:06:52;99359.54;;;7.86;62.27
76337;BME280;65157;50.082;18.178;2023-05-10T01:09:22;99360.54;;;7.82;62.27
76337;BME280;65157;50.082;18.178;2023-05-10T01:11:49;99356.56;;;7.80;62.28
76337;BME280;65157;50.082;18.178;2023-05-10T01:14:16;99358.86;;;7.79;62.24
76337;BME280;65157;50.082;18.178;2023-05-10T01:16:45;99358.20;;;7.78;62.27
76337;BME280;65157;50.082;18.178;2023-05-10T01:19:22;99355.84;;;7.74;62.17
76337;BME280;65157;50.082;18.178;2023-05-10T01:24:47;99352.94;;;7.66;62.14
76337;BME280;65157;50.082;18.178;2023-05-10T01:35:43;99347.90;;;7.57;62.28
76337;BME280;65157;50.082;18.178;2023-05-10T01:38:42;99348.17;;;7.54;62.45
76337;BME280;65157;50.082;18.178;2023-05-10T01:41:16;99344.58;;;7.51;62.45
76337;BME280;65157;50.082;18.178;2023-05-10T01:46:35;99346.54;;;7.50;62.66
76337;BME280;65157;50.082;18.178;2023-05-10T01:49:08;99336.13;;;7.45;62.62
76337;BME280;65157;50.082;18.178;2023-05-10T01:51:44;99342.15;;;7.50;62.46
76337;BME280;65157;50.082;18.178;2023-05-10T01:54:13;99344.59;;;7.51;62.34
76337;BME280;65157;50.082;18.178;2023-05-10T01:56:43;99343.65;;;7.52;62.22
76337;BME280;65157;50.082;18.178;2023-05-10T01:59:15;99343.99;;;7.53;62.23
76337;BME280;65157;50.082;18.178;2023-05-10T02:01:44;99344.33;;;7.54;62.22
76337;BME280;65157;50.082;18.178;2023-05-10T02:04:16;99340.84;;;7.52;62.15
76337;BME280;65157;50.082;18.178;2023-05-10T02:06:45;99340.52;;;7.52;62.14
76337;BME280;65157;50.082;18.178;2023-05-10T02:09:17;99338.30;;;7.50;62.17
76337;BME280;65157;50.082;18.178;2023-05-10T02:11:47;99338.70;;;7.48;62.13
76337;BME280;65157;50.082;18.178;2023-05-10T02:14:16;99334.88;;;7.47;62.16
76337;BME280;65157;50.082;18.178;2023-05-10T02:16:44;99334.20;;;7.46;62.15
76337;BME280;65157;50.082;18.178;2023-05-10T02:19:13;99332.45;;;7.45;62.23
76337;BME280;65157;50.082;18.178;2023-05-10T02:21:41;99333.19;;;7.44;62.35
76337;BME280;65157;50.082;18.178;2023-05-10T02:24:08;99333.02;;;7.43;62.35
76337;BME280;65157;50.082;18.178;2023-05-10T02:26:38;99332.90;;;7.42;62.55
76337;BME280;65157;50.082;18.178;2023-05-10T02:29:06;99329.13;;;7.38;62.68
76337;BME280;65157;50.082;18.178;2023-05-10T02:31:34;99331.49;;;7.35;62.84
76337;BME280;65157;50.082;18.178;2023-05-10T02:34:02;99332.42;;;7.33;62.95
76337;BME280;65157;50.082;18.178;2023-05-10T02:36:30;99330.17;;;7.32;63.10
76337;BME280;65157;50.082;18.178;2023-05-10T02:38:59;99331.27;;;7.30;63.16
76337;BME280;65157;50.082;18.178;2023-05-10T02:41:32;99321.72;;;7.20;63.37
76337;BME280;65157;50.082;18.178;2023-05-10T02:44:00;99329.14;;;7.26;63.31
76337;BME280;65157;50.082;18.178;2023-05-10T02:46:29;99327.10;;;7.23;63.50
76337;BME280;65157;50.082;18.178;2023-05-10T02:48:56;99331.04;;;7.20;63.63
76337;BME280;65157;50.082;18.178;2023-05-10T02:51:25;99334.26;;;7.18;63.67
76337;BME280;65157;50.082;18.178;2023-05-10T02:53:58;99333.66;;;7.14;63.93
76337;BME280;65157;50.082;18.178;2023-05-10T02:56:31;99333.77;;;7.10;64.11
76337;BME280;65157;50.082;18.178;2023-05-10T02:58:59;99334.19;;;7.06;64.17
76337;BME280;65157;50.082;18.178;2023-05-10T03:01:26;99330.27;;;7.03;64.21
76337;BME280;65157;50.082;18.178;2023-05-10T03:03:55;99327.85;;;7.02;64.17
76337;BME280;65157;50.082;18.178;2023-05-10T03:06:22;99328.61;;;7.00;64.31
76337;BME280;65157;50.082;18.178;2023-05-10T03:08:48;99330.24;;;6.97;64.46
76337;BME280;65157;50.082;18.178;2023-05-10T03:11:55;99330.11;;;6.96;64.47
76337;BME280;65157;50.082;18.178;2023-05-10T03:20:26;99327.29;;;6.90;64.72
76337;BME280;65157;50.082;18.178;2023-05-10T03:23:04;99325.42;;;6.87;64.84
76337;BME280;65157;50.082;18.178;2023-05-10T03:25:32;99326.90;;;6.84;64.89
76337;BME280;65157;50.082;18.178;2023-05-10T03:28:01;99325.41;;;6.81;65.10
76337;BME280;65157;50.082;18.178;2023-05-10T03:30:29;99326.16;;;6.79;65.12
76337;BME280;65157;50.082;18.178;2023-05-10T03:32:57;99324.28;;;6.77;65.42
76337;BME280;65157;50.082;18.178;2023-05-10T03:35:24;99322.77;;;6.75;65.89
76337;BME280;65157;50.082;18.178;2023-05-10T03:37:50;99322.46;;;6.73;66.05
76337;BME280;65157;50.082;18.178;2023-05-10T03:40:17;99319.35;;;6.71;66.18
76337;BME280;65157;50.082;18.178;2023-05-10T03:42:46;99319.04;;;6.69;66.32
76337;BME280;65157;50.082;18.178;2023-05-10T03:45:13;99319.61;;;6.68;66.17
76337;BME280;65157;50.082;18.178;2023-05-10T03:47:40;99318.92;;;6.67;66.57
76337;BME280;65157;50.082;18.178;2023-05-10T03:50:08;99319.13;;;6.66;66.81
76337;BME280;65157;50.082;18.178;2023-05-10T03:52:35;99317.60;;;6.64;66.82
76337;BME280;65157;50.082;18.178;2023-05-10T03:55:01;99315.65;;;6.65;66.92
76337;BME280;65157;50.082;18.178;2023-05-10T03:57:28;99314.74;;;6.67;66.86
76337;BME280;65157;50.082;18.178;2023-05-10T03:59:55;99309.45;;;6.67;67.12
76337;BME280;65157;50.082;18.178;2023-05-10T04:02:21;99310.29;;;6.68;67.13
76337;BME280;65157;50.082;18.178;2023-05-10T04:04:50;99313.02;;;6.72;67.41
76337;BME280;65157;50.082;18.178;2023-05-10T04:07:16;99316.11;;;6.74;67.42
76337;BME280;65157;50.082;18.178;2023-05-10T04:09:43;99315.67;;;6.78;67.53
76337;BME280;65157;50.082;18.178;2023-05-10T04:12:11;99317.14;;;6.82;67.36
76337;BME280;65157;50.082;18.178;2023-05-10T04:14:38;99314.02;;;6.88;67.67
76337;BME280;65157;50.082;18.178;2023-05-10T04:17:04;99297.15;;;6.81;67.93
76337;BME280;65157;50.082;18.178;2023-05-10T04:19:31;99313.55;;;6.98;67.86
76337;BME280;65157;50.082;18.178;2023-05-10T04:21:58;99316.17;;;7.05;68.04
76337;BME280;65157;50.082;18.178;2023-05-10T04:24:25;99317.08;;;7.11;67.89
76337;BME280;65157;50.082;18.178;2023-05-10T04:26:51;99314.97;;;7.17;68.00
76337;BME280;65157;50.082;18.178;2023-05-10T04:29:20;99316.70;;;7.24;68.04
76337;BME280;65157;50.082;18.178;2023-05-10T04:31:47;99317.72;;;7.32;67.88
76337;BME280;65157;50.082;18.178;2023-05-10T04:34:13;99315.56;;;7.40;68.04
76337;BME280;65157;50.082;18.178;2023-05-10T04:36:40;99314.63;;;7.48;67.99
76337;BME280;65157;50.082;18.178;2023-05-10T04:39:07;99310.33;;;7.57;67.34
76337;BME280;65157;50.082;18.178;2023-05-10T04:41:37;99309.10;;;7.68;66.43
76337;BME280;65157;50.082;18.178;2023-05-10T04:44:04;99309.27;;;7.81;65.80
76337;BME280;65157;50.082;18.178;2023-05-10T04:46:31;99304.67;;;7.93;65.90
76337;BME280;65157;50.082;18.178;2023-05-10T04:48:57;99301.83;;;8.05;65.38
76337;BME280;65157;50.082;18.178;2023-05-10T04:51:24;99299.64;;;8.19;64.89
76337;BME280;65157;50.082;18.178;2023-05-10T04:53:51;99298.52;;;8.33;64.27
76337;BME280;65157;50.082;18.178;2023-05-10T04:56:17;99296.89;;;8.45;64.08
76337;BME280;65157;50.082;18.178;2023-05-10T04:58:44;99301.23;;;8.57;64.15
76337;BME280;65157;50.082;18.178;2023-05-10T05:01:11;99299.77;;;8.69;63.53
76337;BME280;65157;50.082;18.178;2023-05-10T05:03:37;99284.16;;;8.73;63.02
76337;BME280;65157;50.082;18.178;2023-05-10T05:06:04;99303.14;;;8.94;62.85
76337;BME280;65157;50.082;18.178;2023-05-10T05:08:37;99305.08;;;9.09;62.46
76337;BME280;65157;50.082;18.178;2023-05-10T05:11:04;99305.85;;;9.22;61.40
76337;BME280;65157;50.082;18.178;2023-05-10T05:13:31;99306.65;;;9.34;61.96
76337;BME280;65157;50.082;18.178;2023-05-10T05:16:02;99305.98;;;9.47;61.84
76337;BME280;65157;50.082;18.178;2023-05-10T05:18:29;99309.14;;;9.61;61.63
76337;BME280;65157;50.082;18.178;2023-05-10T05:20:59;99308.16;;;9.74;60.72
76337;BME280;65157;50.082;18.178;2023-05-10T05:23:31;99305.15;;;9.88;61.07
76337;BME280;65157;50.082;18.178;2023-05-10T05:25:58;99308.66;;;10.01;60.74
76337;BME280;65157;50.082;18.178;2023-05-10T05:28:24;99306.19;;;10.15;60.54
76337;BME280;65157;50.082;18.178;2023-05-10T05:30:51;99308.00;;;10.28;59.38
76337;BME280;65157;50.082;18.178;2023-05-10T05:33:19;99304.20;;;10.39;58.39
76337;BME280;65157;50.082;18.178;2023-05-10T05:36:00;99300.98;;;10.49;58.17
76337;BME280;65157;50.082;18.178;2023-05-10T05:38:27;99301.38;;;10.60;58.51
76337;BME280;65157;50.082;18.178;2023-05-10T05:40:54;99295.88;;;10.73;58.26
76337;BME280;65157;50.082;18.178;2023-05-10T05:43:21;99298.71;;;10.86;57.42
76337;BME280;65157;50.082;18.178;2023-05-10T05:45:48;99296.59;;;10.98;57.36
76337;BME280;65157;50.082;18.178;2023-05-10T05:48:14;99295.48;;;11.11;57.12
76337;BME280;65157;50.082;18.178;2023-05-10T05:50:41;99291.15;;;11.25;56.65
76337;BME280;65157;50.082;18.178;2023-05-10T05:53:13;99292.63;;;11.40;56.11
76337;BME280;65157;50.082;18.178;2023-05-10T05:55:39;99292.88;;;11.53;56.06
76337;BME280;65157;50.082;18.178;2023-05-10T05:58:07;99292.23;;;11.68;55.93
76337;BME280;65157;50.082;18.178;2023-05-10T06:00:34;99291.21;;;11.83;56.38
76337;BME280;65157;50.082;18.178;2023-05-10T06:03:04;99289.83;;;12.01;56.47
76337;BME280;65157;50.082;18.178;2023-05-10T06:05:34;99290.59;;;12.21;56.89
76337;BME280;65157;50.082;18.178;2023-05-10T06:08:01;99290.10;;;12.42;55.92
76337;BME280;65157;50.082;18.178;2023-05-10T06:10:30;99288.00;;;12.60;55.06
76337;BME280;65157;50.082;18.178;2023-05-10T06:12:57;99292.27;;;12.80;54.25
76337;BME280;65157;50.082;18.178;2023-05-10T06:15:24;99282.36;;;12.97;54.22
76337;BME280;65157;50.082;18.178;2023-05-10T06:17:50;99293.38;;;13.21;53.35
76337;BME280;65157;50.082;18.178;2023-05-10T06:20:17;99289.84;;;13.41;53.31
76337;BME280;65157;50.082;18.178;2023-05-10T06:22:44;99294.96;;;13.58;52.55
76337;BME280;65157;50.082;18.178;2023-05-10T06:25:11;99292.69;;;13.74;52.22
76337;BME280;65157;50.082;18.178;2023-05-10T06:27:38;99288.27;;;13.87;52.18
76337;BME280;65157;50.082;18.178;2023-05-10T06:30:05;99281.54;;;13.99;51.12
76337;BME280;65157;50.082;18.178;2023-05-10T06:32:32;99290.34;;;14.09;50.59
76337;BME280;65157;50.082;18.178;2023-05-10T06:35:01;99293.45;;;14.20;50.81
76337;BME280;65157;50.082;18.178;2023-05-10T06:37:27;99281.73;;;14.34;50.44
76337;BME280;65157;50.082;18.178;2023-05-10T06:39:54;99282.54;;;14.50;50.36
76337;BME280;65157;50.082;18.178;2023-05-10T06:42:26;99282.81;;;14.64;49.59
76337;BME280;65157;50.082;18.178;2023-05-10T06:44:53;99280.46;;;14.74;49.59
76337;BME280;65157;50.082;18.178;2023-05-10T06:47:24;99275.91;;;14.87;49.40
76337;BME280;65157;50.082;18.178;2023-05-10T06:49:50;99279.48;;;15.02;48.88
76337;BME280;65157;50.082;18.178;2023-05-10T06:52:17;99275.86;;;15.09;48.32
76337;BME280;65157;50.082;18.178;2023-05-10T06:54:46;99274.06;;;15.15;47.93
76337;BME280;65157;50.082;18.178;2023-05-10T06:57:12;99276.10;;;15.22;48.02
76337;BME280;65157;50.082;18.178;2023-05-10T06:59:40;99271.55;;;15.24;47.11
76337;BME280;65157;50.082;18.178;2023-05-10T07:02:07;99270.85;;;15.35;47.96
76337;BME280;65157;50.082;18.178;2023-05-10T07:04:35;99267.11;;;15.53;48.14
76337;BME280;65157;50.082;18.178;2023-05-10T07:07:09;99261.32;;;15.75;47.85
76337;BME280;65157;50.082;18.178;2023-05-10T07:09:36;99261.94;;;15.90;46.56
76337;BME280;65157;50.082;18.178;2023-05-10T07:12:03;99256.42;;;15.98;47.34
76337;BME280;65157;50.082;18.178;2023-05-10T07:14:32;99255.14;;;16.07;46.96
76337;BME280;65157;50.082;18.178;2023-05-10T07:16:59;99252.70;;;16.17;46.83
76337;BME280;65157;50.082;18.178;2023-05-10T07:19:26;99255.94;;;16.30;46.33
76337;BME280;65157;50.082;18.178;2023-05-10T07:21:53;99255.95;;;16.35;45.71
76337;BME280;65157;50.082;18.178;2023-05-10T07:24:19;99251.08;;;16.34;45.81
76337;BME280;65157;50.082;18.178;2023-05-10T07:26:46;99256.20;;;16.40;45.58
76337;BME280;65157;50.082;18.178;2023-05-10T07:29:17;99254.61;;;16.51;46.00
76337;BME280;65157;50.082;18.178;2023-05-10T07:31:43;99253.09;;;16.63;45.97
76337;BME280;65157;50.082;18.178;2023-05-10T07:34:12;99254.14;;;16.79;45.57
76337;BME280;65157;50.082;18.178;2023-05-10T07:36:39;99247.85;;;16.92;45.51
76337;BME280;65157;50.082;18.178;2023-05-10T07:39:06;99249.20;;;17.09;45.28
76337;BME280;65157;50.082;18.178;2023-05-10T07:41:32;99245.75;;;17.18;44.34
76337;BME280;65157;50.082;18.178;2023-05-10T07:43:59;99247.92;;;17.28;45.10
76337;BME280;65157;50.082;18.178;2023-05-10T07:46:27;99241.31;;;17.40;45.14
76337;BME280;65157;50.082;18.178;2023-05-10T07:48:53;99237.41;;;17.55;44.90
76337;BME280;65157;50.082;18.178;2023-05-10T07:51:20;99240.34;;;17.82;44.94
76337;BME280;65157;50.082;18.178;2023-05-10T07:53:50;99228.84;;;17.95;43.72
76337;BME280;65157;50.082;18.178;2023-05-10T07:58:50;99230.98;;;18.12;43.50
76337;BME280;65157;50.082;18.178;2023-05-10T08:01:18;99229.55;;;18.24;44.18
76337;BME280;65157;50.082;18.178;2023-05-10T08:03:45;99229.64;;;18.42;43.66
76337;BME280;65157;50.082;18.178;2023-05-10T08:06:11;99231.80;;;18.54;43.59
76337;BME280;65157;50.082;18.178;2023-05-10T08:08:38;99227.71;;;18.66;43.77
76337;BME280;65157;50.082;18.178;2023-05-10T08:11:04;99222.70;;;18.82;43.14
76337;BME280;65157;50.082;18.178;2023-05-10T08:13:31;99229.48;;;18.84;42.59
76337;BME280;65157;50.082;18.178;2023-05-10T08:15:58;99228.55;;;18.90;42.12
76337;BME280;65157;50.082;18.178;2023-05-10T08:18:24;99228.53;;;18.99;42.20
76337;BME280;65157;50.082;18.178;2023-05-10T08:20:51;99221.19;;;19.04;41.33
76337;BME280;65157;50.082;18.178;2023-05-10T08:23:18;99226.92;;;19.19;42.28
76337;BME280;65157;50.082;18.178;2023-05-10T08:25:47;99225.19;;;19.40;42.05
76337;BME280;65157;50.082;18.178;2023-05-10T08:28:16;99210.55;;;19.39;41.40
76337;BME280;65157;50.082;18.178;2023-05-10T08:30:43;99229.71;;;19.55;41.58
76337;BME280;65157;50.082;18.178;2023-05-10T08:33:10;99228.89;;;19.58;41.19
76337;BME280;65157;50.082;18.178;2023-05-10T08:35:36;99227.30;;;19.43;41.35
76337;BME280;65157;50.082;18.178;2023-05-10T08:38:03;99212.66;;;19.21;41.02
76337;BME280;65157;50.082;18.178;2023-05-10T08:40:31;99239.98;;;19.27;40.68
76337;BME280;65157;50.082;18.178;2023-05-10T08:43:04;99235.64;;;19.28;41.76
76337;BME280;65157;50.082;18.178;2023-05-10T08:45:33;99234.90;;;19.32;41.38
76337;BME280;65157;50.082;18.178;2023-05-10T08:48:05;99236.09;;;19.33;41.06
76337;BME280;65157;50.082;18.178;2023-05-10T08:50:40;99236.34;;;19.46;41.47
76337;BME280;65157;50.082;18.178;2023-05-10T08:53:13;99227.40;;;19.57;41.89
76337;BME280;65157;50.082;18.178;2023-05-10T08:55:42;99229.34;;;19.82;41.12
76337;BME280;65157;50.082;18.178;2023-05-10T08:58:19;99230.41;;;20.04;40.72
76337;BME280;65157;50.082;18.178;2023-05-10T09:00:49;99234.79;;;20.16;40.21
76337;BME280;65157;50.082;18.178;2023-05-10T09:03:16;99230.52;;;20.15;39.87
76337;BME280;65157;50.082;18.178;2023-05-10T09:05:47;99224.55;;;20.08;39.39
76337;BME280;65157;50.082;18.178;2023-05-10T09:08:15;99228.20;;;20.24;40.28
76337;BME280;65157;50.082;18.178;2023-05-10T09:10:43;99224.22;;;20.49;40.11
76337;BME280;65157;50.082;18.178;2023-05-10T09:13:10;99221.88;;;20.72;40.52
76337;BME280;65157;50.082;18.178;2023-05-10T09:15:38;99221.13;;;20.94;39.88
76337;BME280;65157;50.082;18.178;2023-05-10T09:18:06;99222.58;;;21.02;39.45
76337;BME280;65157;50.082;18.178;2023-05-10T09:20:32;99218.08;;;20.85;39.28
76337;BME280;65157;50.082;18.178;2023-05-10T09:22:59;99224.02;;;20.74;39.45
76337;BME280;65157;50.082;18.178;2023-05-10T09:25:26;99222.27;;;20.61;38.95
76337;BME280;65157;50.082;18.178;2023-05-10T09:27:53;99214.22;;;20.61;39.99
76337;BME280;65157;50.082;18.178;2023-05-10T09:30:24;99222.11;;;20.76;39.75
76337;BME280;65157;50.082;18.178;2023-05-10T09:32:57;99226.06;;;20.84;39.47
76337;BME280;65157;50.082;18.178;2023-05-10T09:35:28;99223.96;;;20.83;39.15
76337;BME280;65157;50.082;18.178;2023-05-10T09:38:00;99226.95;;;20.84;38.60
76337;BME280;65157;50.082;18.178;2023-05-10T09:40:29;99222.03;;;20.94;38.51
76337;BME280;65157;50.082;18.178;2023-05-10T09:43:06;99225.05;;;21.02;39.14
76337;BME280;65157;50.082;18.178;2023-05-10T09:45:35;99222.96;;;21.12;38.86
76337;BME280;65157;50.082;18.178;2023-05-10T09:48:07;99222.80;;;21.14;38.20
76337;BME280;65157;50.082;18.178;2023-05-10T09:50:34;99224.35;;;21.00;37.84
76337;BME280;65157;50.082;18.178;2023-05-10T09:53:03;99223.35;;;20.80;38.42
76337;BME280;65157;50.082;18.178;2023-05-10T09:55:44;99221.95;;;20.95;39.43
76337;BME280;65157;50.082;18.178;2023-05-10T09:58:14;99216.33;;;21.20;39.20
76337;BME280;65157;50.082;18.178;2023-05-10T10:00:43;99216.27;;;21.39;38.15
76337;BME280;65157;50.082;18.178;2023-05-10T10:03:14;99212.58;;;21.47;37.61
76337;BME280;65157;50.082;18.178;2023-05-10T10:05:44;99209.15;;;21.49;37.64
76337;BME280;65157;50.082;18.178;2023-05-10T10:08:14;99208.52;;;21.42;37.68
76337;BME280;65157;50.082;18.178;2023-05-10T10:10:41;99209.34;;;21.26;37.43
76337;BME280;65157;50.082;18.178;2023-05-10T10:13:09;99201.63;;;21.12;37.40
76337;BME280;65157;50.082;18.178;2023-05-10T10:15:36;99204.70;;;21.03;37.95
76337;BME280;65157;50.082;18.178;2023-05-10T10:18:05;99204.13;;;21.02;37.20
76337;BME280;65157;50.082;18.178;2023-05-10T10:20:32;99203.73;;;21.15;37.05
76337;BME280;65157;50.082;18.178;2023-05-10T10:23:00;99205.67;;;21.21;36.51
76337;BME280;65157;50.082;18.178;2023-05-10T10:25:26;99202.30;;;21.08;36.68
76337;BME280;65157;50.082;18.178;2023-05-10T10:30:44;99196.03;;;20.95;37.03
76337;BME280;65157;50.082;18.178;2023-05-10T10:35:58;99200.16;;;20.98;37.00
76337;BME280;65157;50.082;18.178;2023-05-10T10:38:36;99202.27;;;20.83;37.57
76337;BME280;65157;50.082;18.178;2023-05-10T10:41:10;99201.42;;;20.78;38.28
76337;BME280;65157;50.082;18.178;2023-05-10T10:43:37;99201.82;;;20.88;38.00
76337;BME280;65157;50.082;18.178;2023-05-10T10:46:11;99195.21;;;21.03;37.35
76337;BME280;65157;50.082;18.178;2023-05-10T10:48:41;99197.65;;;21.08;37.40
76337;BME280;65157;50.082;18.178;2023-05-10T10:51:13;99190.03;;;21.00;37.55
76337;BME280;65157;50.082;18.178;2023-05-10T10:53:40;99195.36;;;20.97;38.04
76337;BME280;65157;50.082;18.178;2023-05-10T10:56:10;99191.80;;;20.95;37.90
76337;BME280;65157;50.082;18.178;2023-05-10T10:58:38;99181.80;;;21.07;38.48
76337;BME280;65157;50.082;18.178;2023-05-10T11:01:15;99184.96;;;21.32;37.24
76337;BME280;65157;50.082;18.178;2023-05-10T11:04:18;99180.32;;;21.44;37.43
76337;BME280;65157;50.082;18.178;2023-05-10T11:06:45;99176.18;;;21.38;37.17
76337;BME280;65157;50.082;18.178;2023-05-10T11:09:12;99179.23;;;21.38;37.30
76337;BME280;65157;50.082;18.178;2023-05-10T11:11:58;99164.75;;;21.41;37.52
76337;BME280;65157;50.082;18.178;2023-05-10T11:14:27;99173.19;;;21.66;37.79
76337;BME280;65157;50.082;18.178;2023-05-10T11:16:55;99165.83;;;21.96;36.70
76337;BME280;65157;50.082;18.178;2023-05-10T11:19:27;99165.02;;;22.16;36.16
76337;BME280;65157;50.082;18.178;2023-05-10T11:22:15;99163.45;;;22.33;36.30
76337;BME280;65157;50.082;18.178;2023-05-10T11:24:56;99162.19;;;22.58;35.58
76337;BME280;65157;50.082;18.178;2023-05-10T11:27:23;99161.40;;;22.75;34.74
76337;BME280;65157;50.082;18.178;2023-05-10T11:29:53;99157.61;;;22.78;34.37
76337;BME280;65157;50.082;18.178;2023-05-10T11:32:20;99157.58;;;22.77;34.22
76337;BME280;65157;50.082;18.178;2023-05-10T11:34:47;99158.75;;;22.70;35.47
76337;BME280;65157;50.082;18.178;2023-05-10T11:37:18;99159.19;;;22.58;34.72
76337;BME280;65157;50.082;18.178;2023-05-10T11:39:45;99153.24;;;22.48;34.84
76337;BME280;65157;50.082;18.178;2023-05-10T11:42:12;99150.88;;;22.40;34.84
76337;BME280;65157;50.082;18.178;2023-05-10T11:44:39;99151.97;;;22.37;34.91
76337;BME280;65157;50.082;18.178;2023-05-10T11:47:06;99150.97;;;22.39;35.27
76337;BME280;65157;50.082;18.178;2023-05-10T11:49:32;99149.59;;;22.53;36.01
76337;BME280;65157;50.082;18.178;2023-05-10T11:52:07;99142.33;;;22.61;35.16
76337;BME280;65157;50.082;18.178;2023-05-10T11:54:34;99146.13;;;22.65;35.02
76337;BME280;65157;50.082;18.178;2023-05-10T11:57:01;99142.52;;;22.84;35.13
76337;BME280;65157;50.082;18.178;2023-05-10T11:59:27;99139.73;;;23.13;35.90
76337;BME280;65157;50.082;18.178;2023-05-10T12:01:54;99138.03;;;23.32;34.59
76337;BME280;65157;50.082;18.178;2023-05-10T12:04:23;99137.35;;;23.34;33.29
76337;BME280;65157;50.082;18.178;2023-05-10T12:06:52;99138.98;;;23.19;33.62
76337;BME280;65157;50.082;18.178;2023-05-10T12:09:23;99144.97;;;23.13;33.80
76337;BME280;65157;50.082;18.178;2023-05-10T12:11:55;99139.73;;;23.24;34.06
76337;BME280;65157;50.082;18.178;2023-05-10T12:14:22;99143.27;;;23.36;33.25
76337;BME280;65157;50.082;18.178;2023-05-10T12:16:49;99132.86;;;23.43;33.17
76337;BME280;65157;50.082;18.178;2023-05-10T12:19:19;99134.02;;;23.52;33.54
76337;BME280;65157;50.082;18.178;2023-05-10T12:21:47;99142.77;;;23.47;33.14
76337;BME280;65157;50.082;18.178;2023-05-10T12:24:13;99144.15;;;23.31;33.07
76337;BME280;65157;50.082;18.178;2023-05-10T12:26:42;99148.96;;;23.01;33.26
76337;BME280;65157;50.082;18.178;2023-05-10T12:29:17;99149.79;;;22.68;33.92
76337;BME280;65157;50.082;18.178;2023-05-10T12:31:59;99152.16;;;22.40;35.06
76337;BME280;65157;50.082;18.178;2023-05-10T12:34:34;99145.58;;;22.15;35.38
76337;BME280;65157;50.082;18.178;2023-05-10T12:37:02;99150.99;;;21.93;35.57
76337;BME280;65157;50.082;18.178;2023-05-10T12:42:09;99152.63;;;21.34;36.68
76337;BME280;65157;50.082;18.178;2023-05-10T12:44:39;99152.88;;;21.23;36.87
76337;BME280;65157;50.082;18.178;2023-05-10T12:47:08;99152.04;;;21.25;36.93
76337;BME280;65157;50.082;18.178;2023-05-10T12:49:35;99149.48;;;21.29;37.79
76337;BME280;65157;50.082;18.178;2023-05-10T12:52:01;99152.01;;;21.31;36.94
76337;BME280;65157;50.082;18.178;2023-05-10T12:54:29;99147.01;;;21.33;36.61
76337;BME280;65157;50.082;18.178;2023-05-10T12:56:57;99149.27;;;21.27;37.74
76337;BME280;65157;50.082;18.178;2023-05-10T12:59:23;99148.21;;;21.13;37.20
76337;BME280;65157;50.082;18.178;2023-05-10T13:01:57;99145.77;;;20.98;37.75
76337;BME280;65157;50.082;18.178;2023-05-10T13:04:23;99141.60;;;20.96;37.85
76337;BME280;65157;50.082;18.178;2023-05-10T13:06:50;99140.46;;;21.05;37.10
76337;BME280;65157;50.082;18.178;2023-05-10T13:09:19;99136.28;;;21.20;37.84
76337;BME280;65157;50.082;18.178;2023-05-10T13:11:45;99128.70;;;21.36;37.54
76337;BME280;65157;50.082;18.178;2023-05-10T13:14:15;99121.61;;;21.35;37.37
76337;BME280;65157;50.082;18.178;2023-05-10T13:16:42;99131.93;;;21.41;37.15
76337;BME280;65157;50.082;18.178;2023-05-10T13:19:08;99133.67;;;21.27;36.77
76337;BME280;65157;50.082;18.178;2023-05-10T13:21:35;99129.15;;;21.09;36.53
76337;BME280;65157;50.082;18.178;2023-05-10T13:24:02;99127.61;;;21.02;36.96
76337;BME280;65157;50.082;18.178;2023-05-10T13:26:29;99122.52;;;20.97;37.61
76337;BME280;65157;50.082;18.178;2023-05-10T13:28:56;99122.31;;;20.93;36.63
76337;BME280;65157;50.082;18.178;2023-05-10T13:31:23;99113.92;;;20.82;36.01
76337;BME280;65157;50.082;18.178;2023-05-10T13:33:51;99119.21;;;20.77;37.39